Time;durP1;ratioP1;P1;durP2;ratioP2;P2;SDS_P1;SDS_P2;PMS_P1;PMS_P2;Temp;Humidity;BMP_temperature;BMP_pressure;BME280_temperature;BME280_humidity;BME280_pressure;Samples;Min_cycle;Max_cycle;Signal;HPM_P1;HPM_P2
2023/10/02 00:03:39;;;;;;;6.37;5.57;;;;;;;13.36;100.00;100930.72;5022213;28;20255;-83
2023/10/02 00:06:09;;;;;;;6.57;5.50;;;;;;;13.35;100.00;100944.59;5013239;28;20691;-82
2023/10/02 00:08:49;;;;;;;6.20;5.60;;;;;;;13.33;100.00;100925.53;5018622;28;20192;-83
2023/10/02 00:11:41;;;;;;;6.97;5.70;;;;;;;13.31;100.00;100919.50;5046396;28;20626;-83
2023/10/02 00:14:18;;;;;;;6.93;6.00;;;;;;;13.30;100.00;100920.38;5019488;28;20241;-82
2023/10/02 00:16:58;;;;;;;6.53;5.60;;;;;;;13.30;100.00;100919.50;5007735;28;20946;-81
2023/10/02 00:19:44;;;;;;;6.10;5.50;;;;;;;13.29;100.00;100912.59;5015608;28;20279;-82
2023/10/02 00:22:37;;;;;;;6.53;5.20;;;;;;;13.28;100.00;100914.31;5012034;28;20196;-83
2023/10/02 00:25:10;;;;;;;7.03;5.97;;;;;;;13.24;100.00;100904.81;5010109;28;20220;-83
2023/10/02 00:27:37;;;;;;;7.30;6.33;;;;;;;13.22;100.00;100912.63;5012541;28;20203;-84
2023/10/02 00:30:07;;;;;;;7.03;6.03;;;;;;;13.17;100.00;100911.81;5022740;28;20246;-82
2023/10/02 00:32:34;;;;;;;7.77;6.07;;;;;;;13.13;100.00;100910.16;5017058;28;20188;-82
2023/10/02 00:35:01;;;;;;;7.43;5.90;;;;;;;13.10;100.00;100907.56;5013941;28;20214;-83
2023/10/02 00:40:22;;;;;;;6.40;5.80;;;;;;;13.04;100.00;100903.28;5022744;28;20777;-84
2023/10/02 00:42:56;;;;;;;6.20;5.60;;;;;;;13.02;100.00;100904.16;5036163;28;20185;-83
2023/10/02 00:45:23;;;;;;;6.83;5.60;;;;;;;13.02;100.00;100905.03;5023319;28;20250;-81
2023/10/02 00:47:50;;;;;;;6.17;5.57;;;;;;;13.02;100.00;100897.25;5023448;28;20275;-81
2023/10/02 00:50:18;;;;;;;7.57;5.83;;;;;;;13.02;100.00;100905.03;5021296;28;20207;-82
2023/10/02 00:52:59;;;;;;;6.70;6.00;;;;;;;13.01;100.00;100903.31;5021350;28;20303;-82
2023/10/02 00:55:33;;;;;;;9.00;7.27;;;;;;;13.03;100.00;100906.75;5017840;28;20234;-83
2023/10/02 00:58:01;;;;;;;8.60;7.20;;;;;;;13.03;100.00;100900.69;5017482;28;20184;-84
2023/10/02 01:00:35;;;;;;;8.57;7.00;;;;;;;13.00;100.00;100893.78;5026962;28;20295;-83
2023/10/02 01:03:05;;;;;;;9.30;6.27;;;;;;;12.99;100.00;100896.41;5022163;28;20283;-82
2023/10/02 01:05:42;;;;;;;8.43;6.23;;;;;;;12.96;100.00;100894.69;5015999;28;20303;-81
2023/10/02 01:08:23;;;;;;;7.60;5.97;;;;;;;12.93;100.00;100898.19;5022723;28;20199;-82
2023/10/02 01:10:56;;;;;;;7.77;6.27;;;;;;;12.89;100.00;100904.28;5019753;28;20291;-84
2023/10/02 01:13:38;;;;;;;7.47;6.47;;;;;;;12.85;100.00;100902.59;5026218;28;20946;-83
2023/10/02 01:16:08;;;;;;;8.70;6.70;;;;;;;12.78;100.00;100911.31;5031694;28;20183;-84
2023/10/02 01:18:35;;;;;;;9.67;6.90;;;;;;;12.74;100.00;100918.28;5012828;28;20268;-84
2023/10/02 01:21:09;;;;;;;7.70;6.53;;;;;;;12.74;100.00;100909.59;5021777;28;20214;-85
2023/10/02 01:24:07;;;;;;;9.03;6.30;;;;;;;12.75;100.00;100914.81;5028292;28;20270;-84
2023/10/02 01:26:36;;;;;;;6.97;6.27;;;;;;;12.78;100.00;100914.75;5021772;28;20225;-81
2023/10/02 01:29:04;;;;;;;9.27;6.47;;;;;;;12.80;100.00;100910.41;5029745;28;20589;-83
2023/10/02 01:31:35;;;;;;;6.67;5.80;;;;;;;12.83;100.00;100913.84;5023161;28;20299;-84
2023/10/02 01:34:02;;;;;;;6.67;5.60;;;;;;;12.85;100.00;100913.00;5020259;28;20188;-81
2023/10/02 01:36:32;;;;;;;6.37;5.40;;;;;;;12.88;100.00;100909.50;5022277;28;20871;-83
2023/10/02 01:39:15;;;;;;;7.73;6.10;;;;;;;12.90;100.00;100907.75;5025936;28;20552;-82
2023/10/02 01:41:41;;;;;;;7.43;5.53;;;;;;;12.92;100.00;100904.25;5028500;28;20258;-83
2023/10/02 01:44:10;;;;;;;7.20;5.80;;;;;;;12.94;100.00;100909.44;5023134;28;20222;-84
2023/10/02 01:46:49;;;;;;;7.60;5.93;;;;;;;12.95;100.00;100900.75;5020122;28;20213;-82
2023/10/02 01:49:24;;;;;;;7.67;6.20;;;;;;;12.96;100.00;100908.56;5021766;28;20179;-83
2023/10/02 01:51:50;;;;;;;7.20;5.60;;;;;;;12.98;100.00;100897.28;5010448;28;20253;-81
2023/10/02 01:54:15;;;;;;;6.40;5.50;;;;;;;12.99;100.00;100909.41;5022995;28;20190;-82
2023/10/02 01:56:47;;;;;;;7.67;5.50;;;;;;;12.96;100.00;100907.69;5018103;28;20190;-84
2023/10/02 01:59:19;;;;;;;7.67;5.67;;;;;;;12.93;100.00;100903.38;5023846;28;20200;-82
2023/10/02 02:01:51;;;;;;;7.33;6.10;;;;;;;12.91;100.00;100905.13;5014029;28;20211;-83
2023/10/02 02:04:18;;;;;;;6.53;5.53;;;;;;;12.89;100.00;100908.63;5047513;28;20197;-83
2023/10/02 02:06:56;;;;;;;6.90;6.13;;;;;;;12.87;100.00;100907.78;5013301;28;20217;-82
2023/10/02 02:09:26;;;;;;;6.83;5.70;;;;;;;12.86;100.00;100909.50;5016093;28;20177;-82
2023/10/02 02:12:10;;;;;;;7.33;6.20;;;;;;;12.83;100.00;100913.84;5020187;28;20224;-81
2023/10/02 02:14:41;;;;;;;7.37;5.97;;;;;;;12.80;100.00;100902.63;5027035;28;20824;-83
2023/10/02 02:17:12;;;;;;;7.37;6.13;;;;;;;12.80;100.00;100909.56;5016891;28;20177;-83
2023/10/02 02:19:44;;;;;;;6.07;5.30;;;;;;;12.79;100.00;100905.25;5019819;28;20652;-83
2023/10/02 02:22:10;;;;;;;5.33;4.83;;;;;;;12.80;100.00;100893.97;5012916;28;20325;-82
2023/10/02 02:24:38;;;;;;;6.97;5.90;;;;;;;12.84;100.00;100905.19;5014449;28;20659;-83
2023/10/02 02:27:06;;;;;;;8.77;6.53;;;;;;;12.86;100.00;100909.50;5011258;28;20205;-83
2023/10/02 02:29:33;;;;;;;8.07;6.13;;;;;;;12.88;100.00;100906.91;5020332;28;20193;-82
2023/10/02 02:31:59;;;;;;;7.53;6.03;;;;;;;12.88;100.00;100904.31;5013463;28;20196;-82
2023/10/02 02:34:25;;;;;;;7.80;5.97;;;;;;;12.88;100.00;100907.75;5021012;28;20188;-85
2023/10/02 02:36:51;;;;;;;6.60;5.83;;;;;;;12.87;100.00;100911.22;5016998;28;20266;-84
2023/10/02 02:39:22;;;;;;;6.30;5.70;;;;;;;12.85;100.00;100905.19;5020128;28;20178;-83
2023/10/02 02:42:10;;;;;;;8.23;6.50;;;;;;;12.86;100.00;100914.69;5017398;28;20286;-81
2023/10/02 02:44:43;;;;;;;6.87;5.57;;;;;;;12.85;100.00;100919.91;5046868;28;20291;-83
2023/10/02 02:47:10;;;;;;;6.20;5.60;;;;;;;12.85;100.00;100912.13;5017682;28;20200;-84
2023/10/02 02:49:48;;;;;;;7.40;5.87;;;;;;;12.83;100.00;100924.25;5027590;28;20173;-82
2023/10/02 02:52:33;;;;;;;6.80;5.47;;;;;;;12.75;100.00;100925.19;5015965;28;20201;-83
2023/10/02 02:55:12;;;;;;;7.57;5.87;;;;;;;12.73;100.00;100923.47;5022304;28;20203;-83
2023/10/02 02:57:39;;;;;;;7.57;6.10;;;;;;;12.68;100.00;100915.72;5011252;28;20403;-83
2023/10/02 03:02:54;;;;;;;8.70;6.50;;;;;;;12.54;100.00;100913.22;5024066;28;20270;-83
2023/10/02 03:05:22;;;;;;;7.90;5.77;;;;;;;12.53;100.00;100913.22;5013989;28;20210;-83
2023/10/02 03:07:56;;;;;;;8.47;5.90;;;;;;;12.49;100.00;100912.38;5012614;28;20186;-83
2023/10/02 03:10:23;;;;;;;8.27;6.60;;;;;;;12.50;100.00;100916.72;5018245;28;20800;-82
2023/10/02 03:12:48;;;;;;;8.23;6.00;;;;;;;12.50;100.00;100917.56;5016293;28;20245;-82
2023/10/02 03:15:45;;;;;;;9.10;6.23;;;;;;;12.53;100.00;100918.41;5015390;28;20619;-82
2023/10/02 03:18:23;;;;;;;7.87;6.20;;;;;;;12.55;100.00;100925.34;5017882;28;20237;-83
2023/10/02 03:20:52;;;;;;;7.90;6.00;;;;;;;12.55;100.00;100927.06;5022772;28;20203;-82
2023/10/02 03:23:18;;;;;;;7.77;5.73;;;;;;;12.55;100.00;100922.75;5020612;28;20827;-81
2023/10/02 03:25:45;;;;;;;6.73;5.90;;;;;;;12.55;100.00;100927.06;5015476;28;20204;-84
2023/10/02 03:28:27;;;;;;;6.57;5.23;;;;;;;12.52;100.00;100920.16;5041627;28;20737;-82
2023/10/02 03:30:56;;;;;;;8.17;5.47;;;;;;;12.54;100.00;100922.72;5015603;28;20211;-81
2023/10/02 03:33:22;;;;;;;7.17;5.30;;;;;;;12.54;100.00;100930.53;5016629;28;20187;-83
2023/10/02 03:36:07;;;;;;;7.33;5.63;;;;;;;12.54;100.00;100922.72;5010866;28;20173;-84
2023/10/02 03:38:33;;;;;;;7.33;5.30;;;;;;;12.55;100.00;100927.94;5015598;28;20646;-82
2023/10/02 03:41:01;;;;;;;6.77;5.43;;;;;;;12.56;100.00;100931.38;5014972;28;20302;-81
2023/10/02 03:43:42;;;;;;;7.97;5.60;;;;;;;12.56;100.00;100929.63;5019575;28;20189;-83
2023/10/02 03:46:13;;;;;;;7.50;6.03;;;;;;;12.57;100.00;100923.56;5013635;28;20239;-82
2023/10/02 03:48:39;;;;;;;6.90;5.80;;;;;;;12.58;100.00;100925.28;5018296;28;20280;-82
2023/10/02 03:51:06;;;;;;;7.90;6.87;;;;;;;12.58;100.00;100927.03;5011145;28;20218;-84
2023/10/02 03:53:33;;;;;;;6.90;5.87;;;;;;;12.54;100.00;100926.22;5012217;28;20191;-82
2023/10/02 03:58:53;;;;;;;6.70;5.43;;;;;;;12.48;100.00;100926.25;5019149;28;20234;-84
2023/10/02 04:01:30;;;;;;;7.93;6.30;;;;;;;12.47;100.00;100922.78;5018063;28;21876;-85
2023/10/02 04:04:10;;;;;;;6.73;5.60;;;;;;;12.47;100.00;100927.09;5014619;28;20873;-81
2023/10/02 04:06:36;;;;;;;6.90;5.63;;;;;;;12.45;100.00;100916.75;5017028;28;20258;-83
2023/10/02 04:09:17;;;;;;;7.97;5.90;;;;;;;12.43;100.00;100923.69;5023618;28;20184;-81
2023/10/02 04:11:45;;;;;;;7.90;6.13;;;;;;;12.42;100.00;100921.94;5021075;28;20322;-83
2023/10/02 04:14:17;;;;;;;7.73;5.73;;;;;;;12.41;100.00;100916.75;5024032;28;20629;-84
2023/10/02 04:16:51;;;;;;;7.00;5.60;;;;;;;12.39;100.00;100915.94;5013767;28;20187;-81
2023/10/02 04:19:24;;;;;;;7.17;5.50;;;;;;;12.37;100.00;100913.31;5024548;28;20677;-81
2023/10/02 04:21:56;;;;;;;7.07;5.80;;;;;;;12.33;100.00;100912.50;5019407;28;20184;-83
2023/10/02 04:24:25;;;;;;;5.97;5.07;;;;;;;12.33;100.00;100909.00;5024919;28;20184;-81
2023/10/02 04:27:08;;;;;;;8.87;5.97;;;;;;;12.31;100.00;100909.03;5022450;28;20191;-82
2023/10/02 04:29:37;;;;;;;7.63;6.07;;;;;;;12.28;100.00;100905.59;5022313;28;20333;-81
2023/10/02 04:32:14;;;;;;;6.33;5.30;;;;;;;12.25;100.00;100908.22;5020294;28;20193;-83
2023/10/02 04:34:50;;;;;;;6.47;4.97;;;;;;;12.20;100.00;100906.50;5023752;28;20178;-84
2023/10/02 04:37:22;;;;;;;5.53;4.87;;;;;;;12.19;100.00;100909.97;5017911;28;20179;-86
2023/10/02 04:40:13;;;;;;;6.70;4.83;;;;;;;12.17;100.00;100908.25;5013055;28;20794;-84
2023/10/02 04:42:57;;;;;;;5.47;4.73;;;;;;;12.14;100.00;100906.56;5012966;28;20546;-82
2023/10/02 04:45:26;;;;;;;6.10;4.80;;;;;;;12.14;100.00;100905.66;5026542;28;20177;-83
2023/10/02 04:47:55;;;;;;;5.07;4.40;;;;;;;12.13;100.00;100903.94;5029456;28;20186;-82
2023/10/02 04:52:55;;;;;;;5.83;4.57;;;;;;;12.11;100.00;100903.97;5036382;28;20187;-86
2023/10/02 04:55:24;;;;;;;5.43;4.77;;;;;;;12.11;100.00;100906.56;5028672;28;20180;-83
2023/10/02 04:58:04;;;;;;;7.67;5.30;;;;;;;12.10;100.00;100911.78;5012399;28;20249;-83
2023/10/02 05:00:33;;;;;;;6.13;4.97;;;;;;;12.09;100.00;100905.69;5014790;28;20207;-80
2023/10/02 05:03:09;;;;;;;6.83;5.23;;;;;;;12.08;100.00;100905.72;5018021;28;20214;-83
2023/10/02 05:05:54;;;;;;;6.40;5.70;;;;;;;12.07;100.00;100906.59;5026229;28;20195;-84
2023/10/02 05:08:21;;;;;;;5.93;5.20;;;;;;;12.05;100.00;100906.56;5024338;28;20200;-83
2023/10/02 05:10:49;;;;;;;8.23;5.97;;;;;;;12.05;100.00;100901.38;5023140;28;20247;-84
2023/10/02 05:13:44;;;;;;;9.77;7.00;;;;;;;12.06;100.00;100910.91;5020112;28;20194;-84
2023/10/02 05:16:07;;;;;;;9.60;7.30;;;;;;;12.02;100.00;100901.44;5024448;28;20269;-84
2023/10/02 05:18:33;;;;;;;7.83;6.57;;;;;;;12.00;100.00;100908.34;5023585;28;20203;-83
2023/10/02 05:21:01;;;;;;;9.27;6.93;;;;;;;11.99;100.00;100912.66;5017897;28;20411;-82
2023/10/02 05:23:28;;;;;;;8.80;6.27;;;;;;;12.00;100.00;100921.31;5021925;28;21141;-85
2023/10/02 05:25:54;;;;;;;8.47;6.37;;;;;;;12.01;100.00;100915.28;5017947;28;20266;-83
2023/10/02 05:28:20;;;;;;;7.20;5.77;;;;;;;12.02;100.00;100914.41;5021857;28;20715;-84
2023/10/02 05:30:46;;;;;;;8.00;5.73;;;;;;;12.00;100.00;100916.97;5020948;28;20602;-84
2023/10/02 05:33:16;;;;;;;5.77;4.90;;;;;;;11.98;100.00;100916.13;5019070;28;21820;-83
2023/10/02 05:35:45;;;;;;;6.27;5.23;;;;;;;11.95;100.00;100918.69;5012533;28;20184;-83
2023/10/02 05:38:16;;;;;;;6.60;4.77;;;;;;;11.95;100.00;100928.22;5011929;28;20181;-80
2023/10/02 05:40:47;;;;;;;5.90;4.87;;;;;;;11.94;100.00;100931.69;5022174;28;20331;-84
2023/10/02 05:43:17;;;;;;;7.50;5.03;;;;;;;11.94;100.00;100929.97;5019576;28;20204;-82
2023/10/02 05:51:09;;;;;;;7.57;5.77;;;;;;;12.09;100.00;100938.59;5016911;28;20215;-82
2023/10/02 05:53:36;;;;;;;7.63;5.53;;;;;;;12.15;100.00;100931.63;5018103;28;20865;-82
2023/10/02 05:56:06;;;;;;;7.50;6.33;;;;;;;12.24;100.00;100937.63;5022706;28;20695;-78
2023/10/02 05:58:32;;;;;;;6.30;5.47;;;;;;;12.29;100.00;100938.47;5023979;28;20180;-82
2023/10/02 06:01:16;;;;;;;8.57;6.07;;;;;;;12.34;100.00;100940.16;5017995;28;20229;-82
2023/10/02 06:03:42;;;;;;;9.00;6.70;;;;;;;12.39;100.00;100937.53;5015109;28;20185;-80
2023/10/02 06:06:15;;;;;;;8.60;6.50;;;;;;;12.42;100.00;100939.25;5020606;28;20214;-81
2023/10/02 06:08:43;;;;;;;11.00;7.40;;;;;;;12.42;100.00;100939.25;5016921;28;20228;-85
2023/10/02 06:11:25;;;;;;;9.90;6.70;;;;;;;12.43;100.00;100944.44;5027270;28;20207;-84
2023/10/02 06:13:51;;;;;;;8.13;6.27;;;;;;;12.46;100.00;100938.38;5014782;28;20176;-85
2023/10/02 06:16:17;;;;;;;8.87;6.60;;;;;;;12.49;100.00;100941.78;5022407;28;20268;-81
2023/10/02 06:18:42;;;;;;;8.97;6.40;;;;;;;12.52;100.00;100934.84;5023384;28;20197;-80
2023/10/02 06:21:10;;;;;;;7.50;5.90;;;;;;;12.57;100.00;100935.69;5021643;28;20210;-82
2023/10/02 06:23:39;;;;;;;8.87;5.50;;;;;;;12.64;100.00;100940.84;5022971;28;20189;-82
2023/10/02 06:26:11;;;;;;;7.40;5.40;;;;;;;12.73;100.00;100939.03;5021016;28;20194;-83
2023/10/02 06:28:37;;;;;;;7.67;5.77;;;;;;;12.80;100.00;100944.19;5020532;28;20275;-80
2023/10/02 06:31:06;;;;;;;7.87;6.37;;;;;;;12.88;100.00;100948.47;5018448;28;20764;-81
2023/10/02 06:33:36;;;;;;;10.70;6.20;;;;;;;12.94;100.00;100943.19;5020150;28;20181;-84
2023/10/02 06:36:05;;;;;;;13.10;6.17;;;;;;;13.02;100.00;100958.72;5018449;28;20181;-81
2023/10/02 06:38:30;;;;;;;9.43;6.47;;;;;;;13.07;100.00;100957.84;5017396;28;20197;-82
2023/10/02 06:40:57;;;;;;;11.17;6.80;;;;;;;13.15;100.00;100956.91;5014388;28;20585;-81
2023/10/02 06:43:29;;;;;;;10.10;7.17;;;;;;;13.21;100.00;100956.84;5014976;28;20188;-79
2023/10/02 06:46:13;;;;;;;7.67;6.40;;;;;;;13.26;100.00;100962.84;5010639;28;20203;-84
2023/10/02 06:48:42;;;;;;;8.40;6.73;;;;;;;13.31;100.00;100963.69;5022251;28;20268;-81
2023/10/02 06:51:08;;;;;;;6.90;6.13;;;;;;;13.38;100.00;100965.34;5027202;28;20213;-81
2023/10/02 06:53:34;;;;;;;8.40;6.33;;;;;;;13.46;100.00;100957.47;5022749;28;20191;-80
2023/10/02 06:56:06;;;;;;;7.43;6.27;;;;;;;13.54;100.00;100958.28;5033227;28;20184;-81
2023/10/02 06:58:46;;;;;;;7.10;6.00;;;;;;;13.63;100.00;100956.44;5032579;28;20183;-82
2023/10/02 07:01:12;;;;;;;7.83;5.63;;;;;;;13.71;100.00;100957.25;5015368;28;20201;-81
2023/10/02 07:03:39;;;;;;;8.73;6.47;;;;;;;13.80;100.00;100956.28;5022814;28;20199;-81
2023/10/02 07:06:07;;;;;;;7.83;6.23;;;;;;;13.90;100.00;100959.63;5029081;28;20218;-83
2023/10/02 07:08:34;;;;;;;7.53;6.50;;;;;;;14.01;100.00;100961.22;5017897;28;20274;-81
2023/10/02 07:11:09;;;;;;;8.57;6.73;;;;;;;14.13;100.00;100955.00;5016307;28;20215;-78
2023/10/02 07:13:50;;;;;;;9.30;7.20;;;;;;;14.25;100.00;100960.91;5025456;28;20225;-81
2023/10/02 07:16:17;;;;;;;10.00;7.17;;;;;;;14.34;100.00;100963.41;5009399;28;20191;-82
2023/10/02 07:18:49;;;;;;;9.33;7.53;;;;;;;14.42;100.00;100965.91;5022087;28;20210;-81
2023/10/02 07:21:21;;;;;;;9.70;8.00;;;;;;;14.54;100.00;100963.13;5021254;28;20276;-82
2023/10/02 07:23:47;;;;;;;10.73;7.50;;;;;;;14.62;100.00;100958.66;5012609;28;20437;-83
2023/10/02 07:26:15;;;;;;;7.97;7.00;;;;;;;14.75;100.00;100959.34;5036884;28;20203;-81
2023/10/02 07:28:50;;;;;;;10.57;7.63;;;;;;;14.94;100.00;100959.91;5015472;28;20184;-82
2023/10/02 07:31:19;;;;;;;8.87;7.97;;;;;;;15.11;100.00;100953.56;5025339;28;20214;-82
2023/10/02 07:33:45;;;;;;;11.07;8.37;;;;;;;15.25;100.00;100955.94;5014337;28;20188;-83
2023/10/02 07:36:14;;;;;;;11.23;8.60;;;;;;;15.37;100.00;100960.94;5012041;28;20187;-82
2023/10/02 07:38:45;;;;;;;10.47;8.00;;;;;;;15.50;100.00;100950.28;5013910;28;20184;-80
2023/10/02 07:41:23;;;;;;;9.93;8.20;;;;;;;15.64;100.00;100956.09;5028707;28;20211;-82
2023/10/02 07:43:53;;;;;;;10.07;8.20;;;;;;;15.78;100.00;100954.94;5016741;28;20202;-82
2023/10/02 07:46:22;;;;;;;8.83;7.73;;;;;;;15.89;100.00;100946.94;5019399;28;20203;-83
2023/10/02 07:48:57;;;;;;;10.07;8.17;;;;;;;16.04;100.00;100950.97;5017120;28;20675;-80
2023/10/02 07:51:30;;;;;;;11.97;8.53;;;;;;;16.17;100.00;100952.44;5014717;28;20284;-81
2023/10/02 07:53:59;;;;;;;10.43;8.17;;;;;;;16.26;100.00;100943.56;5048354;28;20180;-84
2023/10/02 07:56:27;;;;;;;11.40;9.27;;;;;;;16.36;100.00;100952.91;5023314;28;20195;-81
2023/10/02 07:58:55;;;;;;;10.17;8.50;;;;;;;16.47;100.00;100952.66;5052768;28;20189;-80
2023/10/02 08:01:27;;;;;;;15.13;8.97;;;;;;;16.63;100.00;100955.75;5020489;28;20208;-81
2023/10/02 08:03:55;;;;;;;15.00;9.17;;;;;;;16.73;100.00;100957.25;5021620;28;20188;-79
2023/10/02 08:06:23;;;;;;;20.10;10.30;;;;;;;16.84;100.00;100949.16;5017877;28;20221;-80
2023/10/02 08:09:35;;;;;;;13.40;9.83;;;;;;;16.94;100.00;100949.78;5013903;28;20188;-80
2023/10/02 08:11:41;;;;;;;12.73;9.47;;;;;;;17.11;100.00;100954.63;5024833;28;20568;-81
2023/10/02 08:14:15;;;;;;;13.00;9.87;;;;;;;17.25;100.00;100953.41;5021738;28;21104;-82
2023/10/02 08:16:58;;;;;;;16.10;11.30;;;;;;;17.25;100.00;100953.41;5021814;28;20653;-83
2023/10/02 08:19:24;;;;;;;11.87;9.83;;;;;;;17.39;100.00;100940.84;5014879;28;20535;-83
2023/10/02 08:21:49;;;;;;;13.53;11.07;;;;;;;17.50;100.00;100949.25;5019167;28;20993;-81
2023/10/02 08:24:15;;;;;;;12.60;10.20;;;;;;;17.66;100.00;100946.22;5012791;28;21010;-83
2023/10/02 08:26:44;;;;;;;12.90;10.67;;;;;;;17.75;100.00;100945.94;5026358;28;20754;-81
2023/10/02 08:29:13;;;;;;;13.20;10.57;;;;;;;17.83;100.00;100948.34;5022302;28;20193;-82
2023/10/02 08:31:49;;;;;;;16.07;12.00;;;;;;;17.82;100.00;100950.13;5014300;28;20610;-84
2023/10/02 08:34:20;;;;;;;16.17;12.40;;;;;;;17.94;100.00;100950.66;5023487;28;20190;-82
2023/10/02 08:37:04;;;;;;;11.93;10.70;;;;;;;18.14;100.00;100952.72;5021698;28;20281;-82
2023/10/02 08:39:40;;;;;;;12.80;9.80;;;;;;;18.23;100.00;100952.41;5019791;28;20190;-81
2023/10/02 08:42:10;;;;;;;13.90;10.20;;;;;;;18.38;100.00;100953.72;5018370;28;20191;-80
2023/10/02 08:44:40;;;;;;;15.23;10.97;;;;;;;18.52;100.00;100947.19;5022520;28;20278;-80
2023/10/02 08:47:12;;;;;;;12.60;10.10;;;;;;;18.54;100.00;100948.84;5022837;28;20214;-81
2023/10/02 08:49:38;;;;;;;12.90;10.43;;;;;;;18.54;100.00;100940.97;5021135;28;20187;-81
2023/10/02 08:52:22;;;;;;;12.70;10.17;;;;;;;18.63;100.00;100944.25;5023355;28;20218;-84
2023/10/02 08:54:47;;;;;;;12.70;9.50;;;;;;;18.73;100.00;100935.16;5022659;28;20682;-81
2023/10/02 08:57:12;;;;;;;12.87;9.57;;;;;;;18.89;100.00;100943.38;5024014;28;20179;-81
2023/10/02 08:59:41;;;;;;;9.63;8.50;;;;;;;18.99;100.00;100930.81;5025105;28;20214;-85
2023/10/02 09:02:16;;;;;;;10.37;8.13;;;;;;;19.09;100.00;100929.63;5026587;28;20179;-81
2023/10/02 09:04:55;;;;;;;11.43;8.60;;;;;;;19.25;100.00;100935.19;5033706;28;20199;-83
2023/10/02 09:08:00;;;;;;;11.97;9.83;;;;;;;19.34;100.00;100934.00;5037156;28;20234;-79
2023/10/02 09:10:26;;;;;;;14.33;10.00;;;;;;;19.33;100.00;100934.91;5023426;28;20204;-82
2023/10/02 09:13:11;;;;;;;13.00;10.00;;;;;;;19.48;100.00;100925.66;5023252;28;20262;-83
2023/10/02 09:15:37;;;;;;;10.70;8.73;;;;;;;19.54;100.00;100932.44;5020420;28;20192;-79
2023/10/02 09:18:20;;;;;;;12.03;9.27;;;;;;;19.65;100.00;100928.53;5016810;28;20592;-83
2023/10/02 09:21:12;;;;;;;13.17;9.67;;;;;;;19.65;100.00;100925.91;5014724;28;20215;-81
2023/10/02 09:23:49;;;;;;;12.57;9.03;;;;;;;19.77;100.00;100924.56;5023176;28;20183;-80
2023/10/02 09:26:23;;;;;;;12.87;9.40;;;;;;;19.84;100.00;100921.72;5028810;28;20343;-84
2023/10/02 09:29:05;;;;;;;11.37;9.13;;;;;;;20.04;100.00;100921.00;5022923;28;20662;-84
2023/10/02 09:31:35;;;;;;;11.47;9.10;;;;;;;20.21;100.00;100917.69;5026434;28;20222;-79
2023/10/02 09:34:10;;;;;;;13.20;9.67;;;;;;;20.09;100.00;100919.06;5026318;28;20631;-83
2023/10/02 09:36:47;;;;;;;12.87;9.47;;;;;;;20.18;100.00;100912.59;5022995;28;20218;-80
2023/10/02 09:39:32;;;;;;;13.07;9.90;;;;;;;20.29;100.00;100907.75;5017449;28;20171;-82
2023/10/02 09:42:07;;;;;;;16.50;11.47;;;;;;;20.31;100.00;100903.28;5022310;28;20587;-82
2023/10/02 09:44:45;;;;;;;12.90;10.23;;;;;;;20.46;100.00;100907.06;5012951;28;20716;-85
2023/10/02 09:47:12;;;;;;;14.23;11.10;;;;;;;20.53;100.00;100907.66;5017314;28;20214;-82
2023/10/02 09:49:48;;;;;;;15.67;10.83;;;;;;;20.74;100.00;100902.47;5017911;28;20243;-80
2023/10/02 09:52:23;;;;;;;17.90;11.23;;;;;;;20.78;100.00;100896.19;5018308;28;20226;-85
2023/10/02 09:55:03;;;;;;;16.07;11.43;;;;;;;20.74;100.00;100898.03;5015101;28;20227;-81
2023/10/02 09:57:36;;;;;;;15.00;10.17;;;;;;;20.93;100.00;100886.78;5019292;28;20529;-83
2023/10/02 10:00:34;;;;;;;16.07;11.13;;;;;;;21.04;100.00;100888.94;5014187;28;20215;-83
2023/10/02 10:03:23;;;;;;;13.57;10.50;;;;;;;21.14;100.00;100888.50;5015449;28;20608;-81
2023/10/02 10:06:16;;;;;;;14.37;10.77;;;;;;;21.14;100.00;100882.34;5011593;28;20196;-82
2023/10/02 10:11:44;;;;;;;15.07;10.30;;;;;;;21.40;100.00;100873.31;5022602;28;20214;-82
2023/10/02 10:14:37;;;;;;;18.30;12.07;;;;;;;21.13;100.00;100873.63;5016051;28;20207;-84
2023/10/02 10:17:03;;;;;;;14.63;10.73;;;;;;;21.40;100.00;100867.19;5017497;28;20191;-80
2023/10/02 10:19:31;;;;;;;15.93;10.77;;;;;;;21.54;100.00;100866.56;5021952;28;20183;-82
2023/10/02 10:21:57;;;;;;;13.33;10.00;;;;;;;21.67;100.00;100867.72;5022999;28;20192;-83
2023/10/02 10:24:33;;;;;;;14.37;10.43;;;;;;;21.82;100.00;100867.94;5015039;28;20690;-82
2023/10/02 10:26:58;;;;;;;16.80;11.40;;;;;;;21.82;99.59;100868.81;5020330;28;20302;-80
2023/10/02 10:29:41;;;;;;;15.07;10.57;;;;;;;21.86;99.43;100859.81;5023147;28;20274;-81
2023/10/02 10:32:23;;;;;;;14.87;10.83;;;;;;;21.86;99.05;100864.25;5015661;28;20303;-82
2023/10/02 10:35:17;;;;;;;14.73;10.37;;;;;;;22.07;97.67;100857.97;5003680;28;20191;-82
2023/10/02 10:37:46;;;;;;;14.87;10.23;;;;;;;22.03;98.23;100859.03;5012454;28;20267;-83
2023/10/02 10:40:44;;;;;;;17.70;11.37;;;;;;;21.95;97.62;100855.03;5046129;28;20262;-80
2023/10/02 10:43:12;;;;;;;13.57;9.90;;;;;;;22.15;98.07;100843.53;5013576;28;20903;-81
2023/10/02 10:45:39;;;;;;;13.57;10.33;;;;;;;22.02;97.30;100845.91;5018600;28;20202;-81
2023/10/02 10:48:26;;;;;;;13.93;9.93;;;;;;;21.95;97.80;100853.25;5014363;28;20689;-81
2023/10/02 10:50:57;;;;;;;15.17;10.60;;;;;;;22.17;96.81;100846.97;5037223;28;20211;-79
2023/10/02 10:53:26;;;;;;;13.97;10.63;;;;;;;22.25;96.07;100844.78;5018237;28;20183;-80
2023/10/02 10:55:55;;;;;;;15.63;11.27;;;;;;;22.26;96.09;100835.09;5018760;28;20184;-83
2023/10/02 10:58:33;;;;;;;15.63;11.53;;;;;;;22.05;95.52;100837.84;5017104;28;20218;-82
2023/10/02 11:01:03;;;;;;;13.70;10.90;;;;;;;22.18;95.73;100832.84;5021628;28;20214;-82
2023/10/02 11:03:30;;;;;;;13.43;10.10;;;;;;;22.33;95.64;100825.94;5015517;28;20187;-83
2023/10/02 11:06:03;;;;;;;16.87;11.07;;;;;;;22.35;95.21;100819.69;5021542;28;20214;-83
2023/10/02 11:08:30;;;;;;;15.17;11.80;;;;;;;22.28;95.05;100827.97;5022904;28;20213;-86
2023/10/02 11:11:01;;;;;;;14.50;10.53;;;;;;;22.42;95.09;100833.44;5027017;28;20216;-83
2023/10/02 11:13:28;;;;;;;16.53;10.50;;;;;;;22.60;94.83;100822.91;5029396;28;20196;-79
2023/10/02 11:15:59;;;;;;;15.57;11.13;;;;;;;22.72;95.10;100821.41;5011498;28;20180;-85
2023/10/02 11:18:26;;;;;;;15.03;11.23;;;;;;;22.73;94.89;100812.56;5020467;28;20270;-84
2023/10/02 11:20:57;;;;;;;13.53;10.63;;;;;;;22.77;95.43;100814.13;5010079;28;20223;-84
2023/10/02 11:23:43;;;;;;;14.70;11.03;;;;;;;22.92;92.45;100813.31;5013237;28;20191;-80
2023/10/02 11:26:13;;;;;;;14.60;10.93;;;;;;;22.84;93.48;100803.16;5019842;28;20234;-82
2023/10/02 11:28:44;;;;;;;12.87;10.47;;;;;;;22.84;93.23;100795.25;5019869;28;20226;-83
2023/10/02 11:31:45;;;;;;;16.00;10.23;;;;;;;22.94;93.28;100797.38;5011688;28;20277;-85
2023/10/02 11:34:11;;;;;;;14.77;10.63;;;;;;;22.81;94.44;100791.91;5012014;28;21011;-82
2023/10/02 11:36:41;;;;;;;13.57;9.93;;;;;;;22.75;93.37;100787.81;5024401;28;20328;-80
2023/10/02 11:39:16;;;;;;;15.17;11.10;;;;;;;22.95;92.50;100788.53;5009129;28;20224;-83
2023/10/02 11:41:42;;;;;;;15.47;10.43;;;;;;;23.11;92.48;100783.31;5016080;28;20211;-80
2023/10/02 11:44:10;;;;;;;14.53;10.73;;;;;;;23.24;92.15;100778.22;5016488;28;20211;-80
2023/10/02 11:46:36;;;;;;;15.17;10.70;;;;;;;23.31;92.35;100766.41;5020050;28;20222;-81
2023/10/02 11:49:02;;;;;;;17.17;11.83;;;;;;;23.39;91.52;100758.06;5014655;28;20195;-79
2023/10/02 11:51:31;;;;;;;15.00;10.50;;;;;;;23.25;91.26;100757.03;5016400;28;20989;-83
2023/10/02 11:53:58;;;;;;;14.03;10.73;;;;;;;23.30;90.36;100756.78;5015911;28;20198;-79
2023/10/02 11:56:24;;;;;;;12.50;9.57;;;;;;;23.32;90.64;100749.63;5023601;28;20222;-82
2023/10/02 11:58:52;;;;;;;12.37;9.57;;;;;;;23.31;91.42;100747.06;5016202;28;20199;-81
2023/10/02 12:01:24;;;;;;;13.07;9.87;;;;;;;23.38;91.40;100740.50;5014631;28;20215;-82